sensor_id;sensor_type;location;lat;lon;timestamp;P1;durP1;ratioP1;P2;durP2;ratioP2
69434;SDS011;56625;54.322;18.582;2023-07-13T00:01:53;8.90;;;3.60;;
69434;SDS011;56625;54.322;18.582;2023-07-13T00:04:23;8.70;;;3.70;;
69434;SDS011;56625;54.322;18.582;2023-07-13T00:06:51;8.60;;;3.60;;
69434;SDS011;56625;54.322;18.582;2023-07-13T00:09:20;7.00;;;3.20;;
69434;SDS011;56625;54.322;18.582;2023-07-13T00:11:54;7.00;;;3.00;;
69434;SDS011;56625;54.322;18.582;2023-07-13T00:14:25;9.10;;;3.70;;
69434;SDS011;56625;54.322;18.582;2023-07-13T00:16:53;10.10;;;3.90;;
69434;SDS011;56625;54.322;18.582;2023-07-13T00:19:21;8.90;;;3.60;;
69434;SDS011;56625;54.322;18.582;2023-07-13T00:21:48;9.50;;;3.40;;
69434;SDS011;56625;54.322;18.582;2023-07-13T00:24:16;9.10;;;3.40;;
69434;SDS011;56625;54.322;18.582;2023-07-13T00:26:49;8.70;;;3.70;;
69434;SDS011;56625;54.322;18.582;2023-07-13T00:29:16;7.80;;;3.40;;
69434;SDS011;56625;54.322;18.582;2023-07-13T00:31:42;8.50;;;3.40;;
69434;SDS011;56625;54.322;18.582;2023-07-13T00:34:10;8.50;;;3.50;;
69434;SDS011;56625;54.322;18.582;2023-07-13T00:36:36;8.40;;;3.50;;
69434;SDS011;56625;54.322;18.582;2023-07-13T00:39:03;8.90;;;3.40;;
69434;SDS011;56625;54.322;18.582;2023-07-13T00:41:31;9.80;;;3.50;;
69434;SDS011;56625;54.322;18.582;2023-07-13T00:43:57;8.80;;;3.70;;
69434;SDS011;56625;54.322;18.582;2023-07-13T00:46:30;7.30;;;3.60;;
69434;SDS011;56625;54.322;18.582;2023-07-13T00:49:04;8.70;;;4.10;;
69434;SDS011;56625;54.322;18.582;2023-07-13T00:51:40;8.70;;;3.50;;
69434;SDS011;56625;54.322;18.582;2023-07-13T00:54:13;7.70;;;3.30;;
69434;SDS011;56625;54.322;18.582;2023-07-13T00:56:44;9.70;;;3.60;;
69434;SDS011;56625;54.322;18.582;2023-07-13T00:59:15;7.70;;;3.70;;
69434;SDS011;56625;54.322;18.582;2023-07-13T01:01:43;8.30;;;3.60;;
69434;SDS011;56625;54.322;18.582;2023-07-13T01:04:10;7.50;;;3.50;;
69434;SDS011;56625;54.322;18.582;2023-07-13T01:06:37;10.60;;;3.90;;
69434;SDS011;56625;54.322;18.582;2023-07-13T01:09:07;8.30;;;3.90;;
69434;SDS011;56625;54.322;18.582;2023-07-13T01:11:34;8.50;;;4.10;;
69434;SDS011;56625;54.322;18.582;2023-07-13T01:14:02;9.70;;;4.20;;
69434;SDS011;56625;54.322;18.582;2023-07-13T01:16:31;8.50;;;3.70;;
69434;SDS011;56625;54.322;18.582;2023-07-13T01:19:00;9.40;;;3.80;;
69434;SDS011;56625;54.322;18.582;2023-07-13T01:21:29;9.60;;;3.80;;
69434;SDS011;56625;54.322;18.582;2023-07-13T01:23:59;12.00;;;4.10;;
69434;SDS011;56625;54.322;18.582;2023-07-13T01:26:26;10.10;;;4.20;;
69434;SDS011;56625;54.322;18.582;2023-07-13T01:28:53;9.70;;;3.50;;
69434;SDS011;56625;54.322;18.582;2023-07-13T01:31:19;7.80;;;3.90;;
69434;SDS011;56625;54.322;18.582;2023-07-13T01:33:46;8.10;;;3.60;;
69434;SDS011;56625;54.322;18.582;2023-07-13T01:36:12;8.10;;;3.60;;
69434;SDS011;56625;54.322;18.582;2023-07-13T01:38:40;7.50;;;4.10;;
69434;SDS011;56625;54.322;18.582;2023-07-13T01:41:10;8.30;;;3.80;;
69434;SDS011;56625;54.322;18.582;2023-07-13T01:43:37;8.00;;;4.10;;
69434;SDS011;56625;54.322;18.582;2023-07-13T01:46:04;8.20;;;3.90;;
69434;SDS011;56625;54.322;18.582;2023-07-13T01:48:49;9.00;;;3.60;;
69434;SDS011;56625;54.322;18.582;2023-07-13T01:51:17;10.00;;;3.80;;
69434;SDS011;56625;54.322;18.582;2023-07-13T01:53:44;9.90;;;4.20;;
69434;SDS011;56625;54.322;18.582;2023-07-13T01:56:11;7.90;;;3.60;;
69434;SDS011;56625;54.322;18.582;2023-07-13T01:58:38;8.60;;;3.50;;
69434;SDS011;56625;54.322;18.582;2023-07-13T02:01:04;7.70;;;3.50;;
69434;SDS011;56625;54.322;18.582;2023-07-13T02:03:31;7.30;;;3.50;;
69434;SDS011;56625;54.322;18.582;2023-07-13T02:05:58;7.70;;;3.30;;
69434;SDS011;56625;54.322;18.582;2023-07-13T02:08:24;8.80;;;3.70;;
69434;SDS011;56625;54.322;18.582;2023-07-13T02:10:51;9.50;;;3.40;;
69434;SDS011;56625;54.322;18.582;2023-07-13T02:13:17;7.90;;;3.90;;
69434;SDS011;56625;54.322;18.582;2023-07-13T02:15:44;9.60;;;3.90;;
69434;SDS011;56625;54.322;18.582;2023-07-13T02:18:11;7.00;;;3.30;;
69434;SDS011;56625;54.322;18.582;2023-07-13T02:20:39;8.50;;;4.00;;
69434;SDS011;56625;54.322;18.582;2023-07-13T02:23:05;10.30;;;4.10;;
69434;SDS011;56625;54.322;18.582;2023-07-13T02:25:36;9.90;;;3.90;;
69434;SDS011;56625;54.322;18.582;2023-07-13T02:28:02;9.30;;;3.60;;
69434;SDS011;56625;54.322;18.582;2023-07-13T02:30:30;8.30;;;3.80;;
69434;SDS011;56625;54.322;18.582;2023-07-13T02:32:57;9.20;;;3.70;;
69434;SDS011;56625;54.322;18.582;2023-07-13T02:35:24;9.60;;;3.50;;
69434;SDS011;56625;54.322;18.582;2023-07-13T02:37:50;8.30;;;4.00;;
69434;SDS011;56625;54.322;18.582;2023-07-13T02:40:17;9.80;;;4.00;;
69434;SDS011;56625;54.322;18.582;2023-07-13T02:42:43;10.20;;;3.50;;
69434;SDS011;56625;54.322;18.582;2023-07-13T02:45:10;13.10;;;3.80;;
69434;SDS011;56625;54.322;18.582;2023-07-13T02:47:40;8.90;;;3.60;;
69434;SDS011;56625;54.322;18.582;2023-07-13T02:50:08;6.70;;;3.20;;
69434;SDS011;56625;54.322;18.582;2023-07-13T02:52:35;8.60;;;3.40;;
69434;SDS011;56625;54.322;18.582;2023-07-13T02:55:02;10.10;;;3.50;;
69434;SDS011;56625;54.322;18.582;2023-07-13T02:57:29;10.60;;;3.90;;
69434;SDS011;56625;54.322;18.582;2023-07-13T02:59:56;8.30;;;3.40;;
69434;SDS011;56625;54.322;18.582;2023-07-13T03:02:25;8.80;;;3.80;;
69434;SDS011;56625;54.322;18.582;2023-07-13T03:04:55;8.50;;;3.60;;
69434;SDS011;56625;54.322;18.582;2023-07-13T03:07:21;11.90;;;3.80;;
69434;SDS011;56625;54.322;18.582;2023-07-13T03:09:48;10.50;;;3.70;;
69434;SDS011;56625;54.322;18.582;2023-07-13T03:12:15;13.00;;;3.60;;
69434;SDS011;56625;54.322;18.582;2023-07-13T03:14:41;11.10;;;3.90;;
69434;SDS011;56625;54.322;18.582;2023-07-13T03:17:08;11.20;;;3.50;;
69434;SDS011;56625;54.322;18.582;2023-07-13T03:19:35;11.80;;;3.90;;
69434;SDS011;56625;54.322;18.582;2023-07-13T03:22:01;8.40;;;3.70;;
69434;SDS011;56625;54.322;18.582;2023-07-13T03:24:28;10.10;;;3.80;;
69434;SDS011;56625;54.322;18.582;2023-07-13T03:26:57;9.50;;;3.90;;
69434;SDS011;56625;54.322;18.582;2023-07-13T03:29:30;12.90;;;3.80;;
69434;SDS011;56625;54.322;18.582;2023-07-13T03:31:56;10.00;;;3.60;;
69434;SDS011;56625;54.322;18.582;2023-07-13T03:34:23;11.20;;;3.90;;
69434;SDS011;56625;54.322;18.582;2023-07-13T03:36:50;10.70;;;3.50;;
69434;SDS011;56625;54.322;18.582;2023-07-13T03:39:17;9.30;;;3.40;;
69434;SDS011;56625;54.322;18.582;2023-07-13T03:41:43;10.50;;;3.50;;
69434;SDS011;56625;54.322;18.582;2023-07-13T03:44:09;7.70;;;3.30;;
69434;SDS011;56625;54.322;18.582;2023-07-13T03:46:36;11.30;;;3.50;;
69434;SDS011;56625;54.322;18.582;2023-07-13T03:49:04;9.00;;;3.70;;
69434;SDS011;56625;54.322;18.582;2023-07-13T03:51:31;9.40;;;3.80;;
69434;SDS011;56625;54.322;18.582;2023-07-13T03:53:58;11.50;;;3.90;;
69434;SDS011;56625;54.322;18.582;2023-07-13T03:56:24;7.70;;;3.00;;
69434;SDS011;56625;54.322;18.582;2023-07-13T03:58:51;11.70;;;2.90;;
69434;SDS011;56625;54.322;18.582;2023-07-13T04:01:19;7.50;;;2.80;;
69434;SDS011;56625;54.322;18.582;2023-07-13T04:03:48;9.00;;;2.70;;
69434;SDS011;56625;54.322;18.582;2023-07-13T04:06:27;6.30;;;2.30;;
69434;SDS011;56625;54.322;18.582;2023-07-13T04:08:57;9.00;;;2.40;;
69434;SDS011;56625;54.322;18.582;2023-07-13T04:11:30;7.60;;;2.40;;
69434;SDS011;56625;54.322;18.582;2023-07-13T04:13:58;8.30;;;2.40;;
69434;SDS011;56625;54.322;18.582;2023-07-13T04:16:25;8.10;;;2.20;;
69434;SDS011;56625;54.322;18.582;2023-07-13T04:18:52;8.30;;;2.20;;
69434;SDS011;56625;54.322;18.582;2023-07-13T04:21:30;8.10;;;2.10;;
69434;SDS011;56625;54.322;18.582;2023-07-13T04:23:58;6.50;;;2.50;;
69434;SDS011;56625;54.322;18.582;2023-07-13T04:26:24;6.50;;;2.00;;
69434;SDS011;56625;54.322;18.582;2023-07-13T04:28:51;5.30;;;1.70;;
69434;SDS011;56625;54.322;18.582;2023-07-13T04:31:18;6.90;;;2.20;;
69434;SDS011;56625;54.322;18.582;2023-07-13T04:33:45;7.60;;;2.20;;
69434;SDS011;56625;54.322;18.582;2023-07-13T04:36:16;7.60;;;1.80;;
69434;SDS011;56625;54.322;18.582;2023-07-13T04:38:43;8.40;;;2.10;;
69434;SDS011;56625;54.322;18.582;2023-07-13T04:41:10;6.80;;;1.80;;
69434;SDS011;56625;54.322;18.582;2023-07-13T04:43:37;8.10;;;2.10;;
69434;SDS011;56625;54.322;18.582;2023-07-13T04:46:10;7.90;;;1.70;;
69434;SDS011;56625;54.322;18.582;2023-07-13T04:48:40;9.80;;;2.00;;
69434;SDS011;56625;54.322;18.582;2023-07-13T04:51:07;6.10;;;1.70;;
69434;SDS011;56625;54.322;18.582;2023-07-13T04:53:34;8.30;;;1.90;;
69434;SDS011;56625;54.322;18.582;2023-07-13T04:56:01;7.80;;;1.60;;
69434;SDS011;56625;54.322;18.582;2023-07-13T04:58:30;8.00;;;1.80;;
69434;SDS011;56625;54.322;18.582;2023-07-13T05:01:04;8.10;;;1.80;;
69434;SDS011;56625;54.322;18.582;2023-07-13T05:03:32;8.00;;;1.60;;
69434;SDS011;56625;54.322;18.582;2023-07-13T05:06:03;7.20;;;1.80;;
69434;SDS011;56625;54.322;18.582;2023-07-13T05:08:32;7.80;;;2.00;;
69434;SDS011;56625;54.322;18.582;2023-07-13T05:11:00;6.90;;;1.50;;
69434;SDS011;56625;54.322;18.582;2023-07-13T05:13:27;6.70;;;1.70;;
69434;SDS011;56625;54.322;18.582;2023-07-13T05:16:02;7.40;;;1.80;;
69434;SDS011;56625;54.322;18.582;2023-07-13T05:18:30;5.70;;;1.50;;
69434;SDS011;56625;54.322;18.582;2023-07-13T05:21:02;7.30;;;1.80;;
69434;SDS011;56625;54.322;18.582;2023-07-13T05:23:32;12.70;;;2.40;;
69434;SDS011;56625;54.322;18.582;2023-07-13T05:26:01;10.20;;;1.80;;
69434;SDS011;56625;54.322;18.582;2023-07-13T05:28:28;7.10;;;1.60;;
69434;SDS011;56625;54.322;18.582;2023-07-13T05:30:57;6.60;;;2.00;;
69434;SDS011;56625;54.322;18.582;2023-07-13T05:33:24;8.10;;;1.70;;
69434;SDS011;56625;54.322;18.582;2023-07-13T05:35:51;5.80;;;1.40;;
69434;SDS011;56625;54.322;18.582;2023-07-13T05:38:18;6.90;;;1.60;;
69434;SDS011;56625;54.322;18.582;2023-07-13T05:40:45;5.80;;;1.50;;
69434;SDS011;56625;54.322;18.582;2023-07-13T05:43:13;5.40;;;1.40;;
69434;SDS011;56625;54.322;18.582;2023-07-13T05:45:40;13.10;;;2.20;;
69434;SDS011;56625;54.322;18.582;2023-07-13T05:48:07;7.90;;;1.90;;
69434;SDS011;56625;54.322;18.582;2023-07-13T05:50:34;10.30;;;1.80;;
69434;SDS011;56625;54.322;18.582;2023-07-13T05:53:00;8.00;;;1.70;;
69434;SDS011;56625;54.322;18.582;2023-07-13T05:55:27;6.70;;;1.50;;
69434;SDS011;56625;54.322;18.582;2023-07-13T05:57:54;7.20;;;1.60;;
69434;SDS011;56625;54.322;18.582;2023-07-13T06:00:21;9.40;;;1.60;;
69434;SDS011;56625;54.322;18.582;2023-07-13T06:02:47;7.60;;;1.20;;
69434;SDS011;56625;54.322;18.582;2023-07-13T06:05:14;7.70;;;1.40;;
69434;SDS011;56625;54.322;18.582;2023-07-13T06:07:41;8.40;;;1.50;;
69434;SDS011;56625;54.322;18.582;2023-07-13T06:10:09;7.80;;;1.50;;
69434;SDS011;56625;54.322;18.582;2023-07-13T06:12:35;6.20;;;1.70;;
69434;SDS011;56625;54.322;18.582;2023-07-13T06:15:03;6.30;;;1.20;;
69434;SDS011;56625;54.322;18.582;2023-07-13T06:17:30;5.90;;;1.30;;
69434;SDS011;56625;54.322;18.582;2023-07-13T06:19:57;6.10;;;1.20;;
69434;SDS011;56625;54.322;18.582;2023-07-13T06:22:23;6.00;;;1.10;;
69434;SDS011;56625;54.322;18.582;2023-07-13T06:24:50;5.80;;;1.20;;
69434;SDS011;56625;54.322;18.582;2023-07-13T06:27:16;6.50;;;1.30;;
69434;SDS011;56625;54.322;18.582;2023-07-13T06:29:43;5.70;;;1.20;;
69434;SDS011;56625;54.322;18.582;2023-07-13T06:32:13;6.60;;;1.30;;
69434;SDS011;56625;54.322;18.582;2023-07-13T06:34:40;5.40;;;1.30;;
69434;SDS011;56625;54.322;18.582;2023-07-13T06:37:09;6.30;;;1.10;;
69434;SDS011;56625;54.322;18.582;2023-07-13T06:39:36;6.20;;;1.30;;
69434;SDS011;56625;54.322;18.582;2023-07-13T06:42:03;8.90;;;1.50;;
69434;SDS011;56625;54.322;18.582;2023-07-13T06:44:32;5.60;;;1.70;;
69434;SDS011;56625;54.322;18.582;2023-07-13T06:46:58;5.60;;;1.10;;
69434;SDS011;56625;54.322;18.582;2023-07-13T06:49:25;6.90;;;1.20;;
69434;SDS011;56625;54.322;18.582;2023-07-13T06:51:52;7.10;;;1.30;;
69434;SDS011;56625;54.322;18.582;2023-07-13T06:54:18;8.00;;;1.20;;
69434;SDS011;56625;54.322;18.582;2023-07-13T06:56:45;7.60;;;1.60;;
69434;SDS011;56625;54.322;18.582;2023-07-13T06:59:12;4.20;;;1.10;;
69434;SDS011;56625;54.322;18.582;2023-07-13T07:01:38;5.50;;;1.40;;
69434;SDS011;56625;54.322;18.582;2023-07-13T07:04:07;5.30;;;1.30;;
69434;SDS011;56625;54.322;18.582;2023-07-13T07:06:35;4.70;;;1.30;;
69434;SDS011;56625;54.322;18.582;2023-07-13T07:09:01;8.50;;;1.40;;
69434;SDS011;56625;54.322;18.582;2023-07-13T07:11:28;5.10;;;1.20;;
69434;SDS011;56625;54.322;18.582;2023-07-13T07:13:55;6.70;;;1.10;;
69434;SDS011;56625;54.322;18.582;2023-07-13T07:16:23;6.70;;;1.40;;
69434;SDS011;56625;54.322;18.582;2023-07-13T07:18:51;7.10;;;1.30;;
69434;SDS011;56625;54.322;18.582;2023-07-13T07:21:17;11.20;;;1.60;;
69434;SDS011;56625;54.322;18.582;2023-07-13T07:23:45;4.80;;;1.20;;
69434;SDS011;56625;54.322;18.582;2023-07-13T07:26:12;5.30;;;1.00;;
69434;SDS011;56625;54.322;18.582;2023-07-13T07:28:38;4.80;;;1.10;;
69434;SDS011;56625;54.322;18.582;2023-07-13T07:31:12;4.60;;;1.20;;
69434;SDS011;56625;54.322;18.582;2023-07-13T07:33:42;5.20;;;1.10;;
69434;SDS011;56625;54.322;18.582;2023-07-13T07:36:12;5.80;;;1.30;;
69434;SDS011;56625;54.322;18.582;2023-07-13T07:38:44;7.10;;;1.20;;
69434;SDS011;56625;54.322;18.582;2023-07-13T07:41:12;6.80;;;1.20;;
69434;SDS011;56625;54.322;18.582;2023-07-13T07:43:42;3.60;;;0.90;;
69434;SDS011;56625;54.322;18.582;2023-07-13T07:46:09;6.60;;;1.00;;
69434;SDS011;56625;54.322;18.582;2023-07-13T07:48:36;5.50;;;1.10;;
69434;SDS011;56625;54.322;18.582;2023-07-13T07:51:03;5.90;;;1.20;;
69434;SDS011;56625;54.322;18.582;2023-07-13T07:53:30;4.80;;;1.20;;
69434;SDS011;56625;54.322;18.582;2023-07-13T07:56:00;6.40;;;1.20;;
69434;SDS011;56625;54.322;18.582;2023-07-13T07:58:47;5.40;;;1.10;;
69434;SDS011;56625;54.322;18.582;2023-07-13T08:01:16;5.40;;;1.00;;
69434;SDS011;56625;54.322;18.582;2023-07-13T08:03:46;5.80;;;1.00;;
69434;SDS011;56625;54.322;18.582;2023-07-13T08:06:16;7.10;;;1.20;;
69434;SDS011;56625;54.322;18.582;2023-07-13T08:09:03;8.00;;;1.30;;
69434;SDS011;56625;54.322;18.582;2023-07-13T08:11:32;5.70;;;1.00;;
69434;SDS011;56625;54.322;18.582;2023-07-13T08:14:02;3.20;;;0.80;;
69434;SDS011;56625;54.322;18.582;2023-07-13T08:16:31;9.10;;;1.30;;
69434;SDS011;56625;54.322;18.582;2023-07-13T08:18:59;6.20;;;1.10;;
69434;SDS011;56625;54.322;18.582;2023-07-13T08:21:26;3.30;;;0.80;;
69434;SDS011;56625;54.322;18.582;2023-07-13T08:23:53;13.90;;;2.10;;
69434;SDS011;56625;54.322;18.582;2023-07-13T08:26:19;6.20;;;1.30;;
69434;SDS011;56625;54.322;18.582;2023-07-13T08:28:46;5.60;;;1.10;;
69434;SDS011;56625;54.322;18.582;2023-07-13T08:31:12;4.90;;;1.00;;
69434;SDS011;56625;54.322;18.582;2023-07-13T08:33:40;6.70;;;0.90;;
69434;SDS011;56625;54.322;18.582;2023-07-13T08:36:07;6.80;;;0.80;;
69434;SDS011;56625;54.322;18.582;2023-07-13T08:38:34;5.70;;;1.00;;
69434;SDS011;56625;54.322;18.582;2023-07-13T08:41:10;4.10;;;1.00;;
69434;SDS011;56625;54.322;18.582;2023-07-13T08:43:41;6.20;;;1.20;;
69434;SDS011;56625;54.322;18.582;2023-07-13T08:46:16;4.60;;;1.10;;
69434;SDS011;56625;54.322;18.582;2023-07-13T08:48:58;6.80;;;1.00;;
69434;SDS011;56625;54.322;18.582;2023-07-13T08:51:42;3.80;;;0.80;;
69434;SDS011;56625;54.322;18.582;2023-07-13T08:54:22;5.10;;;1.00;;
69434;SDS011;56625;54.322;18.582;2023-07-13T08:56:58;4.80;;;1.00;;
69434;SDS011;56625;54.322;18.582;2023-07-13T08:59:30;5.80;;;0.90;;
69434;SDS011;56625;54.322;18.582;2023-07-13T09:02:17;5.10;;;0.90;;
69434;SDS011;56625;54.322;18.582;2023-07-13T09:05:02;5.20;;;1.10;;
69434;SDS011;56625;54.322;18.582;2023-07-13T09:10:54;4.50;;;0.90;;
69434;SDS011;56625;54.322;18.582;2023-07-13T09:13:50;5.10;;;0.90;;
69434;SDS011;56625;54.322;18.582;2023-07-13T09:16:39;4.50;;;0.90;;
69434;SDS011;56625;54.322;18.582;2023-07-13T09:19:13;3.40;;;0.90;;
69434;SDS011;56625;54.322;18.582;2023-07-13T09:21:50;3.60;;;0.70;;
69434;SDS011;56625;54.322;18.582;2023-07-13T09:24:45;3.70;;;0.80;;
69434;SDS011;56625;54.322;18.582;2023-07-13T09:27:30;5.30;;;0.80;;
69434;SDS011;56625;54.322;18.582;2023-07-13T09:32:44;5.00;;;0.90;;
69434;SDS011;56625;54.322;18.582;2023-07-13T09:35:21;4.90;;;0.90;;
69434;SDS011;56625;54.322;18.582;2023-07-13T09:38:14;4.10;;;1.00;;
69434;SDS011;56625;54.322;18.582;2023-07-13T09:44:00;4.50;;;0.80;;
69434;SDS011;56625;54.322;18.582;2023-07-13T09:46:42;3.50;;;0.90;;
69434;SDS011;56625;54.322;18.582;2023-07-13T09:49:12;5.10;;;1.10;;
69434;SDS011;56625;54.322;18.582;2023-07-13T09:51:42;7.10;;;1.20;;
69434;SDS011;56625;54.322;18.582;2023-07-13T09:54:21;4.90;;;1.00;;
69434;SDS011;56625;54.322;18.582;2023-07-13T09:56:58;5.90;;;1.10;;
69434;SDS011;56625;54.322;18.582;2023-07-13T09:59:34;9.10;;;1.10;;
69434;SDS011;56625;54.322;18.582;2023-07-13T10:04:56;5.00;;;1.00;;
69434;SDS011;56625;54.322;18.582;2023-07-13T10:07:27;3.80;;;0.90;;
69434;SDS011;56625;54.322;18.582;2023-07-13T10:09:57;6.10;;;1.10;;
69434;SDS011;56625;54.322;18.582;2023-07-13T10:12:29;4.20;;;0.90;;
69434;SDS011;56625;54.322;18.582;2023-07-13T10:15:01;4.70;;;0.90;;
69434;SDS011;56625;54.322;18.582;2023-07-13T10:17:51;5.40;;;1.10;;
69434;SDS011;56625;54.322;18.582;2023-07-13T10:20:20;4.40;;;0.90;;
69434;SDS011;56625;54.322;18.582;2023-07-13T10:22:58;4.30;;;1.00;;
69434;SDS011;56625;54.322;18.582;2023-07-13T10:25:38;5.70;;;1.20;;
69434;SDS011;56625;54.322;18.582;2023-07-13T10:28:29;6.30;;;1.00;;
69434;SDS011;56625;54.322;18.582;2023-07-13T10:31:02;6.70;;;0.90;;
69434;SDS011;56625;54.322;18.582;2023-07-13T10:33:32;7.40;;;1.00;;
69434;SDS011;56625;54.322;18.582;2023-07-13T10:36:20;5.00;;;1.20;;
69434;SDS011;56625;54.322;18.582;2023-07-13T10:39:04;5.50;;;1.10;;
69434;SDS011;56625;54.322;18.582;2023-07-13T10:41:39;5.70;;;0.70;;
69434;SDS011;56625;54.322;18.582;2023-07-13T10:44:23;5.80;;;0.80;;
69434;SDS011;56625;54.322;18.582;2023-07-13T10:46:58;20.90;;;2.50;;
69434;SDS011;56625;54.322;18.582;2023-07-13T10:49:34;5.70;;;0.90;;
69434;SDS011;56625;54.322;18.582;2023-07-13T10:52:03;5.80;;;1.10;;
69434;SDS011;56625;54.322;18.582;2023-07-13T10:54:33;4.50;;;0.90;;
69434;SDS011;56625;54.322;18.582;2023-07-13T10:57:17;5.80;;;1.30;;
69434;SDS011;56625;54.322;18.582;2023-07-13T11:02:30;4.70;;;1.10;;
69434;SDS011;56625;54.322;18.582;2023-07-13T11:05:17;5.10;;;0.90;;
69434;SDS011;56625;54.322;18.582;2023-07-13T11:08:11;4.10;;;0.90;;
69434;SDS011;56625;54.322;18.582;2023-07-13T11:11:33;4.30;;;1.10;;
69434;SDS011;56625;54.322;18.582;2023-07-13T11:14:25;5.60;;;1.00;;
69434;SDS011;56625;54.322;18.582;2023-07-13T11:16:52;6.30;;;0.90;;
69434;SDS011;56625;54.322;18.582;2023-07-13T11:22:10;4.60;;;0.90;;
69434;SDS011;56625;54.322;18.582;2023-07-13T11:25:02;5.90;;;1.10;;
69434;SDS011;56625;54.322;18.582;2023-07-13T11:28:17;6.20;;;1.10;;
69434;SDS011;56625;54.322;18.582;2023-07-13T11:36:13;10.10;;;1.20;;
69434;SDS011;56625;54.322;18.582;2023-07-13T11:38:55;7.20;;;1.20;;
69434;SDS011;56625;54.322;18.582;2023-07-13T11:41:31;15.70;;;2.20;;
69434;SDS011;56625;54.322;18.582;2023-07-13T11:44:16;6.90;;;1.20;;
69434;SDS011;56625;54.322;18.582;2023-07-13T11:46:47;6.80;;;1.50;;
69434;SDS011;56625;54.322;18.582;2023-07-13T11:49:24;7.30;;;1.30;;
69434;SDS011;56625;54.322;18.582;2023-07-13T11:51:53;6.90;;;1.90;;
69434;SDS011;56625;54.322;18.582;2023-07-13T11:57:05;8.50;;;1.60;;
69434;SDS011;56625;54.322;18.582;2023-07-13T11:59:44;6.60;;;1.50;;
69434;SDS011;56625;54.322;18.582;2023-07-13T12:02:20;6.20;;;1.40;;
69434;SDS011;56625;54.322;18.582;2023-07-13T12:04:57;6.30;;;1.40;;
69434;SDS011;56625;54.322;18.582;2023-07-13T12:07:29;11.90;;;1.80;;
69434;SDS011;56625;54.322;18.582;2023-07-13T12:10:27;5.50;;;1.60;;
69434;SDS011;56625;54.322;18.582;2023-07-13T12:13:00;6.90;;;1.50;;
69434;SDS011;56625;54.322;18.582;2023-07-13T12:15:48;8.70;;;1.90;;
69434;SDS011;56625;54.322;18.582;2023-07-13T12:18:17;8.90;;;1.70;;
69434;SDS011;56625;54.322;18.582;2023-07-13T12:20:47;6.20;;;1.50;;
69434;SDS011;56625;54.322;18.582;2023-07-13T12:23:29;5.20;;;1.30;;
69434;SDS011;56625;54.322;18.582;2023-07-13T12:26:02;7.10;;;1.80;;
69434;SDS011;56625;54.322;18.582;2023-07-13T12:28:39;8.00;;;1.40;;
69434;SDS011;56625;54.322;18.582;2023-07-13T12:33:59;7.80;;;1.50;;
69434;SDS011;56625;54.322;18.582;2023-07-13T12:36:30;5.70;;;1.40;;
69434;SDS011;56625;54.322;18.582;2023-07-13T12:39:35;5.60;;;1.50;;
69434;SDS011;56625;54.322;18.582;2023-07-13T12:42:21;7.50;;;1.80;;
69434;SDS011;56625;54.322;18.582;2023-07-13T12:44:53;4.70;;;1.20;;
69434;SDS011;56625;54.322;18.582;2023-07-13T12:47:41;7.80;;;1.80;;
69434;SDS011;56625;54.322;18.582;2023-07-13T12:50:17;6.40;;;1.50;;
69434;SDS011;56625;54.322;18.582;2023-07-13T12:52:54;8.00;;;1.50;;
69434;SDS011;56625;54.322;18.582;2023-07-13T12:55:26;7.50;;;1.60;;
69434;SDS011;56625;54.322;18.582;2023-07-13T12:57:57;5.80;;;1.40;;
69434;SDS011;56625;54.322;18.582;2023-07-13T13:00:30;7.70;;;1.50;;
69434;SDS011;56625;54.322;18.582;2023-07-13T13:08:50;5.80;;;1.20;;
69434;SDS011;56625;54.322;18.582;2023-07-13T13:11:22;10.60;;;1.70;;
69434;SDS011;56625;54.322;18.582;2023-07-13T13:13:50;9.20;;;1.30;;
69434;SDS011;56625;54.322;18.582;2023-07-13T13:16:19;6.30;;;1.40;;
69434;SDS011;56625;54.322;18.582;2023-07-13T13:18:54;6.10;;;1.40;;
69434;SDS011;56625;54.322;18.582;2023-07-13T13:21:25;7.80;;;1.40;;
69434;SDS011;56625;54.322;18.582;2023-07-13T13:23:52;7.10;;;1.30;;
69434;SDS011;56625;54.322;18.582;2023-07-13T13:26:23;6.50;;;1.40;;
69434;SDS011;56625;54.322;18.582;2023-07-13T13:28:50;7.10;;;1.60;;
69434;SDS011;56625;54.322;18.582;2023-07-13T13:31:16;12.80;;;2.20;;
69434;SDS011;56625;54.322;18.582;2023-07-13T13:33:45;6.50;;;1.40;;
69434;SDS011;56625;54.322;18.582;2023-07-13T13:36:20;5.40;;;1.30;;
69434;SDS011;56625;54.322;18.582;2023-07-13T13:38:50;9.60;;;1.30;;
69434;SDS011;56625;54.322;18.582;2023-07-13T13:41:17;9.10;;;1.60;;
69434;SDS011;56625;54.322;18.582;2023-07-13T13:43:44;4.70;;;1.40;;
69434;SDS011;56625;54.322;18.582;2023-07-13T13:46:17;6.80;;;1.20;;
69434;SDS011;56625;54.322;18.582;2023-07-13T13:48:47;8.10;;;1.10;;
69434;SDS011;56625;54.322;18.582;2023-07-13T13:51:24;6.00;;;1.10;;
69434;SDS011;56625;54.322;18.582;2023-07-13T13:53:51;4.60;;;1.00;;
69434;SDS011;56625;54.322;18.582;2023-07-13T13:56:19;5.60;;;1.10;;
69434;SDS011;56625;54.322;18.582;2023-07-13T13:58:46;5.60;;;1.00;;
69434;SDS011;56625;54.322;18.582;2023-07-13T14:01:17;5.90;;;1.20;;
69434;SDS011;56625;54.322;18.582;2023-07-13T14:03:46;7.10;;;1.10;;
69434;SDS011;56625;54.322;18.582;2023-07-13T14:06:15;6.80;;;1.20;;
69434;SDS011;56625;54.322;18.582;2023-07-13T14:08:42;20.50;;;2.40;;
69434;SDS011;56625;54.322;18.582;2023-07-13T14:11:18;6.10;;;1.20;;
69434;SDS011;56625;54.322;18.582;2023-07-13T14:13:58;12.00;;;1.50;;
69434;SDS011;56625;54.322;18.582;2023-07-13T14:16:29;9.10;;;1.70;;
69434;SDS011;56625;54.322;18.582;2023-07-13T14:18:58;7.50;;;1.40;;
69434;SDS011;56625;54.322;18.582;2023-07-13T14:21:28;5.60;;;1.10;;
69434;SDS011;56625;54.322;18.582;2023-07-13T14:23:55;6.50;;;1.00;;
69434;SDS011;56625;54.322;18.582;2023-07-13T14:26:24;5.50;;;1.00;;
69434;SDS011;56625;54.322;18.582;2023-07-13T14:28:54;6.50;;;1.00;;
69434;SDS011;56625;54.322;18.582;2023-07-13T14:31:23;6.80;;;1.10;;
69434;SDS011;56625;54.322;18.582;2023-07-13T14:33:57;6.40;;;0.90;;
69434;SDS011;56625;54.322;18.582;2023-07-13T14:36:31;6.10;;;1.10;;
69434;SDS011;56625;54.322;18.582;2023-07-13T14:39:08;7.10;;;1.20;;
69434;SDS011;56625;54.322;18.582;2023-07-13T14:41:41;6.10;;;1.10;;
69434;SDS011;56625;54.322;18.582;2023-07-13T14:44:12;4.60;;;0.90;;
69434;SDS011;56625;54.322;18.582;2023-07-13T14:46:39;6.00;;;0.90;;
69434;SDS011;56625;54.322;18.582;2023-07-13T14:49:19;5.60;;;0.90;;
69434;SDS011;56625;54.322;18.582;2023-07-13T14:51:52;6.70;;;1.20;;
69434;SDS011;56625;54.322;18.582;2023-07-13T14:54:18;5.80;;;0.80;;
69434;SDS011;56625;54.322;18.582;2023-07-13T14:56:45;5.10;;;0.80;;
69434;SDS011;56625;54.322;18.582;2023-07-13T14:59:13;6.90;;;1.20;;
69434;SDS011;56625;54.322;18.582;2023-07-13T15:01:40;6.00;;;1.00;;
69434;SDS011;56625;54.322;18.582;2023-07-13T15:04:08;9.10;;;0.80;;
69434;SDS011;56625;54.322;18.582;2023-07-13T15:06:53;5.70;;;0.90;;
69434;SDS011;56625;54.322;18.582;2023-07-13T15:09:23;4.60;;;0.80;;
69434;SDS011;56625;54.322;18.582;2023-07-13T15:11:56;6.70;;;1.10;;
69434;SDS011;56625;54.322;18.582;2023-07-13T15:14:24;5.40;;;0.80;;
69434;SDS011;56625;54.322;18.582;2023-07-13T15:16:53;6.10;;;0.80;;
69434;SDS011;56625;54.322;18.582;2023-07-13T15:19:22;18.80;;;2.20;;
69434;SDS011;56625;54.322;18.582;2023-07-13T15:21:52;7.20;;;1.00;;
69434;SDS011;56625;54.322;18.582;2023-07-13T15:24:21;7.20;;;0.90;;
69434;SDS011;56625;54.322;18.582;2023-07-13T15:26:48;5.90;;;0.90;;
69434;SDS011;56625;54.322;18.582;2023-07-13T15:29:16;8.10;;;1.10;;
69434;SDS011;56625;54.322;18.582;2023-07-13T15:31:43;5.80;;;0.90;;